Historique des mesures à Cassis (13260), France
Quotidien Résumé Juillet 14, 2018 Unités:  Métrique    US   Métrique/US
« Précédent (Jour)
Suivant (Jour) »
Quotidien Hebdomadaire Mensuel Annuel Période au choix
  Maximum: Minimum: Moyenne:
Température: TemperatureC °C 24.3 °C 26.5 °C
Point de rosée: DewpointC °C 14.3 °C 17.7 °C
Humidité: Humidity % 51 % 55 %
Vitesse du vent: 0 km/h 0 km/h 3.7 km/h
Rafales: 0 km/h - -
Vent:- - SW
Pression: PressurehPa hPa 1009.7 hPa -
Précipitations: 0.0 mm    
Historical Graphs
 
 
Mesures pour : Juillet 14, 2018
Heure Temperature Point de rosée Pression Vent Vitesse du vent Rafales Humidité Pluie (par heure) Conditions
TemperatureC °C DewpointC °C PressurehPa hPa Calm     Humidity % HourlyPrecipMM mm SoftwareType W/m2
00:10 24.3 °C 16.6 °C 1013.1 hPa Calm   2.3 km/h 62 % 0.0 mm open2300-1.11 W/m2
01:10 24.8 °C 14.8 °C 1012.2 hPa NNW 4.7 km/h 7.6 km/h 54 % 0.0 mm open2300-1.11 W/m2
02:10 25.1 °C 14.6 °C 1012.2 hPa North 5.6 km/h 5.6 km/h 52 % 0.0 mm open2300-1.11 W/m2
03:10 25.4 °C 14.6 °C 1012.7 hPa NW 9.8 km/h 9.8 km/h 51 % 0.0 mm open2300-1.11 W/m2
04:10 25.1 °C 14.3 °C 1012.7 hPa NNW 3.4 km/h 5.6 km/h 51 % 0.0 mm open2300-1.11 W/m2
05:10 25.3 °C 14.4 °C 1012.2 hPa Calm     51 % 0.0 mm open2300-1.11 W/m2
06:10 24.9 °C 14.9 °C 1011.6 hPa East 2.3 km/h 2.3 km/h 54 % 0.0 mm open2300-1.11 W/m2
07:10 24.4 °C 15.6 °C 1011.3 hPa Calm     58 % 0.0 mm open2300-1.11 W/m2
08:10 24.9 °C 17.1 °C 1011.5 hPa NNW 6.4 km/h 6.4 km/h 62 % 0.0 mm open2300-1.11 W/m2
09:10 26.2 °C 17.3 °C 1011.6 hPa Calm   4.2 km/h 58 % 0.0 mm open2300-1.11 W/m2
10:10 27.9 °C 18.6 °C 1011.0 hPa Calm     57 % 0.0 mm open2300-1.11 W/m2
11:10 30.3 °C 20.2 °C 1011.0 hPa South 5.6 km/h 20.9 km/h 55 % 0.0 mm open2300-1.11 W/m2
12:10 31.3 °C 20.9 °C 1012.0 hPa SE 3.4 km/h 15 km/h 54 % 0.0 mm open2300-1.11 W/m2
13:10 30.9 °C 22.0 °C 1012.5 hPa SSW 15.6 km/h 30.7 km/h 59 % 0.0 mm open2300-1.11 W/m2
14:10 31.6 °C 22.7 °C 1012.4 hPa South 3.4 km/h 6.4 km/h 59 % 0.0 mm open2300-1.11 W/m2
15:10 31.4 °C 22.4 °C 1011.8 hPa South 9.3 km/h 9.8 km/h 59 % 0.0 mm open2300-1.11 W/m2
16:10 30.9 °C 22.3 °C 1011.3 hPa West 10.3 km/h 10.3 km/h 60 % 0.0 mm open2300-1.11 W/m2
17:10 30.8 °C 22.2 °C 1010.9 hPa SSW 4.2 km/h 4.7 km/h 60 % 0.0 mm open2300-1.11 W/m2
18:10 30.3 °C 21.1 °C 1010.3 hPa Calm   6.4 km/h 58 % 0.0 mm open2300-1.11 W/m2
19:10 29.4 °C 20.6 °C 1010.1 hPa SSE 4.2 km/h 9.3 km/h 59 % 0.0 mm open2300-1.11 W/m2
20:10 28.5 °C 20.0 °C 1009.8 hPa SSW 2.3 km/h 2.3 km/h 60 % 0.0 mm open2300-1.11 W/m2
21:10 27.5 °C 19.3 °C 1009.7 hPa Calm     61 % 0.0 mm open2300-1.11 W/m2
22:10 26.3 °C 18.4 °C 1010.3 hPa NNW 2.3 km/h 2.3 km/h 62 % 0.0 mm open2300-1.11 W/m2
23:10 25.7 °C 17.7 °C 1010.5 hPa Calm     61 % 0.0 mm open2300-1.11 W/m2
Observations météo à CASSIS
WU-History script by Weather Underground - 1 mb